Time;durP1;ratioP1;P1;durP2;ratioP2;P2;SDS_P1;SDS_P2;PMS_P1;PMS_P2;Temp;Humidity;BMP_temperature;BMP_pressure;BME280_temperature;BME280_humidity;BME280_pressure;Samples;Min_cycle;Max_cycle;Signal;HPM_P1;HPM_P2
2022/01/15 00:01:48;;;;;;;144.32;35.22;;;;;;;-146.64;100.00;98942.19;5054229;28;20086;-75
2022/01/15 00:04:13;;;;;;;127.25;36.72;;;;;;;-146.64;100.00;98942.19;5053637;28;20473;-75
2022/01/15 00:06:40;;;;;;;141.40;34.72;;;;;;;-146.64;100.00;98942.19;5037604;28;20436;-75
2022/01/15 00:09:05;;;;;;;106.95;37.00;;;;;;;-146.64;100.00;98942.19;5054073;28;20442;-75
2022/01/15 00:11:31;;;;;;;128.88;35.78;;;;;;;-146.64;100.00;99208.09;5054368;28;20080;-75
2022/01/15 00:14:12;;;;;;;113.90;34.58;;;;;;;-146.64;100.00;98942.19;5050914;28;20036;-74
2022/01/15 00:16:49;;;;;;;94.63;35.17;;;;;;;-146.64;100.00;99208.09;5055380;28;20035;-75
2022/01/15 00:19:16;;;;;;;;;;;;;;;-146.64;100.00;99208.09;5039866;28;20318;-75
2022/01/15 00:21:42;;;;;;;105.53;34.58;;;;;;;-146.64;100.00;99208.09;5054273;28;19912;-75
2022/01/15 00:24:07;;;;;;;101.60;34.60;;;;;;;-146.64;100.00;99208.09;5036649;28;20027;-74
2022/01/15 00:26:33;;;;;;;117.38;35.08;;;;;;;-146.64;100.00;99208.09;5036194;28;20043;-75
2022/01/15 00:28:59;;;;;;;119.60;35.20;;;;;;;-146.64;100.00;99208.09;5051306;28;20055;-75
2022/01/15 00:31:24;;;;;;;118.05;33.67;;;;;;;-146.64;100.00;99474.03;5036145;28;20020;-75
2022/01/15 00:33:50;;;;;;;106.20;35.22;;;;;;;-146.64;100.00;99474.03;5069495;28;20514;-75
2022/01/15 00:36:16;;;;;;;130.30;35.08;;;;;;;-146.64;100.00;99474.03;5053931;28;20039;-74
2022/01/15 00:38:41;;;;;;;127.07;37.33;;;;;;;-146.64;100.00;99474.03;5049688;28;20354;-74
2022/01/15 00:41:07;;;;;;;109.82;34.65;;;;;;;-146.64;100.00;99474.03;5036014;28;20036;-75
2022/01/15 00:43:32;;;;;;;118.43;36.67;;;;;;;-146.64;100.00;99474.03;5035082;28;20405;-74
2022/01/15 00:45:58;;;;;;;110.68;33.88;;;;;;;-146.64;100.00;99474.03;5053477;28;20495;-74
2022/01/15 00:48:24;;;;;;;100.35;34.65;;;;;;;-146.64;100.00;99474.03;5059089;28;20035;-74
2022/01/15 00:50:49;;;;;;;107.55;33.03;;;;;;;-146.64;100.00;99474.03;5047287;28;20032;-75
2022/01/15 00:53:14;;;;;;;103.57;32.80;;;;;;;-146.64;100.00;99474.03;5052366;28;20049;-74
2022/01/15 00:55:39;;;;;;;104.90;32.58;;;;;;;-146.64;100.00;99474.03;5033185;28;20517;-74
2022/01/15 00:58:05;;;;;;;97.53;32.80;;;;;;;-146.64;100.00;99474.03;5063377;28;20028;-75
2022/01/15 01:00:30;;;;;;;106.00;32.45;;;;;;;-146.64;100.00;99474.03;5052611;28;20028;-75
2022/01/15 01:02:56;;;;;;;90.10;32.72;;;;;;;-146.64;100.00;99474.03;5052346;28;20028;-75
2022/01/15 01:05:21;;;;;;;107.25;31.25;;;;;;;-146.64;100.00;99474.03;5029714;28;20021;-75
2022/01/15 01:07:47;;;;;;;97.07;31.50;;;;;;;-146.64;100.00;99474.03;5032101;28;20393;-74
2022/01/15 01:10:48;;;;;;;98.97;30.80;;;;;;;-146.64;100.00;99474.03;5069975;28;20041;-75
2022/01/15 01:13:38;;;;;;;98.53;29.95;;;;;;;-146.64;100.00;99474.03;5068086;28;20293;-74
2022/01/15 01:24:12;;;;;;;114.28;31.75;;;;;;;-146.64;100.00;99474.03;5053535;28;20104;-75
2022/01/15 01:26:48;;;;;;;105.65;32.38;;;;;;;-146.64;100.00;99474.03;5049509;28;20060;-75
2022/01/15 01:29:30;;;;;;;95.67;29.70;;;;;;;-146.64;100.00;99474.03;5039987;28;20067;-75
2022/01/15 01:34:23;;;;;;;118.72;30.02;;;;;;;-146.64;100.00;99208.09;5054451;28;20016;-74
2022/01/15 01:37:01;;;;;;;101.85;30.15;;;;;;;-146.64;100.00;99208.09;5052798;28;20620;-75
2022/01/15 01:39:38;;;;;;;96.63;29.02;;;;;;;-146.64;100.00;99208.09;5065022;28;20033;-74
2022/01/15 01:45:09;;;;;;;103.97;27.52;;;;;;;-146.64;100.00;98676.28;5067104;28;20553;-74
2022/01/15 01:47:42;;;;;;;82.25;28.25;;;;;;;-146.64;100.00;98942.19;5038085;28;20094;-75
2022/01/15 01:50:20;;;;;;;89.85;28.67;;;;;;;-146.64;100.00;98942.19;5049585;28;20508;-74
2022/01/15 01:52:48;;;;;;;103.47;26.52;;;;;;;-146.64;100.00;98676.28;5069248;28;20075;-74
2022/01/15 01:55:16;;;;;;;94.78;27.90;;;;;;;-146.64;100.00;98676.28;5043815;28;20489;-74
2022/01/15 01:57:42;;;;;;;71.13;25.20;;;;;;;-146.64;100.00;98410.41;5038001;28;20047;-74
2022/01/15 02:00:10;;;;;;;80.65;26.98;;;;;;;-146.64;100.00;98676.28;5065230;28;20029;-74
2022/01/15 02:02:35;;;;;;;66.07;25.10;;;;;;;-146.64;100.00;98676.28;5048376;28;20384;-75
2022/01/15 02:05:02;;;;;;;89.13;26.60;;;;;;;-146.64;100.00;98410.41;5051825;28;20039;-75
2022/01/15 02:07:28;;;;;;;77.47;26.98;;;;;;;-146.64;100.00;98676.28;5052738;28;20452;-75
2022/01/15 02:09:54;;;;;;;87.70;27.20;;;;;;;-146.64;100.00;98676.28;5055262;28;20051;-77
2022/01/15 02:12:19;;;;;;;80.93;27.05;;;;;;;-146.64;100.00;98942.19;5049409;28;20021;-76
2022/01/15 02:14:44;;;;;;;80.45;26.38;;;;;;;-146.64;100.00;98676.28;5030585;28;20040;-74
2022/01/15 02:17:12;;;;;;;75.70;25.88;;;;;;;-146.64;100.00;98942.19;5059904;28;20035;-75
2022/01/15 02:19:46;;;;;;;81.10;26.63;;;;;;;-146.64;100.00;98942.19;5066715;28;20441;-75
2022/01/15 02:24:55;;;;;;;92.63;26.88;;;;;;;-146.64;100.00;98676.28;5049489;28;20039;-75
2022/01/15 02:27:20;;;;;;;86.78;25.67;;;;;;;-146.64;100.00;98410.41;5055608;28;20036;-75
2022/01/15 02:29:45;;;;;;;82.82;27.45;;;;;;;-146.64;100.00;98676.28;5070559;28;20028;-75
2022/01/15 02:32:11;;;;;;;101.95;25.70;;;;;;;-146.64;100.00;98676.28;5050464;28;20081;-75
2022/01/15 02:34:36;;;;;;;74.97;25.45;;;;;;;-146.64;100.00;98676.28;5051184;28;20060;-74
2022/01/15 02:37:02;;;;;;;59.88;23.13;;;;;;;-146.64;100.00;98410.41;5033527;28;20040;-74
2022/01/15 02:39:27;;;;;;;56.08;22.92;;;;;;;-146.64;100.00;97878.69;5067173;28;20048;-75
2022/01/15 02:41:52;;;;;;;61.05;21.52;;;;;;;-146.64;100.00;97612.84;5066669;28;20048;-74
2022/01/15 02:44:19;;;;;;;60.88;22.70;;;;;;;-146.64;100.00;97878.69;5048588;28;20452;-75
2022/01/15 02:49:13;;;;;;;70.75;22.08;;;;;;;-146.64;100.00;97878.69;5051659;28;20039;-74
2022/01/15 02:51:38;;;;;;;60.63;22.23;;;;;;;-146.64;100.00;98144.53;5066764;28;20032;-75
2022/01/15 02:54:04;;;;;;;68.40;24.02;;;;;;;-146.64;100.00;98144.53;5035162;28;20068;-74
2022/01/15 02:56:35;;;;;;;68.70;23.77;;;;;;;-146.64;100.00;98144.53;5049893;28;20413;-75
2022/01/15 02:59:03;;;;;;;67.07;23.63;;;;;;;-146.64;100.00;98144.53;5070597;28;20035;-75
2022/01/15 03:01:29;;;;;;;78.32;23.95;;;;;;;-146.64;100.00;97878.69;5050662;28;20028;-76
2022/01/15 03:03:54;;;;;;;70.30;23.07;;;;;;;-146.64;100.00;97878.69;5073975;28;20079;-74
2022/01/15 03:06:20;;;;;;;57.28;21.33;;;;;;;-146.64;100.00;97878.69;5053964;28;20438;-75
2022/01/15 03:08:46;;;;;;;59.50;22.80;;;;;;;-146.64;100.00;97878.69;5044100;28;20028;-74
2022/01/15 03:11:12;;;;;;;63.97;22.48;;;;;;;-146.64;100.00;97612.84;5051679;28;20033;-74
2022/01/15 03:13:38;;;;;;;71.15;23.27;;;;;;;-146.64;100.00;97878.69;5060988;28;20035;-75
2022/01/15 03:16:08;;;;;;;70.80;24.65;;;;;;;-146.64;100.00;97878.69;5055988;28;20456;-74
2022/01/15 03:18:33;;;;;;;66.20;22.73;;;;;;;-146.64;100.00;97878.69;5071375;28;20032;-74
2022/01/15 03:20:59;;;;;;;73.15;22.98;;;;;;;-146.64;100.00;97878.69;5038814;28;20046;-75
2022/01/15 03:23:24;;;;;;;66.53;22.25;;;;;;;-146.64;100.00;98144.53;5054838;28;20025;-74
2022/01/15 03:25:49;;;;;;;75.60;24.00;;;;;;;-146.64;100.00;98144.53;5055508;28;20036;-75
2022/01/15 03:28:15;;;;;;;77.57;23.65;;;;;;;-146.64;100.00;98144.53;5071061;28;20033;-75
2022/01/15 03:30:41;;;;;;;69.32;23.92;;;;;;;-146.64;100.00;98144.53;5054992;28;20024;-75
2022/01/15 03:33:07;;;;;;;65.95;23.15;;;;;;;-146.64;100.00;98144.53;5055639;28;20021;-75
2022/01/15 03:35:33;;;;;;;69.35;22.92;;;;;;;-146.64;100.00;98144.53;5054619;28;20028;-74
2022/01/15 03:37:58;;;;;;;69.85;23.33;;;;;;;-146.64;100.00;98144.53;5053125;28;20392;-74
2022/01/15 03:40:24;;;;;;;90.68;23.30;;;;;;;-146.64;100.00;98410.41;5071022;28;20033;-75
2022/01/15 03:42:49;;;;;;;63.63;22.65;;;;;;;-146.64;100.00;98144.53;5056904;28;20348;-75
2022/01/15 03:45:14;;;;;;;91.78;23.45;;;;;;;-146.64;100.00;98144.53;5051663;28;20037;-75
2022/01/15 03:47:41;;;;;;;76.35;23.70;;;;;;;-146.64;100.00;98144.53;5053389;28;20032;-75
2022/01/15 03:50:07;;;;;;;128.23;26.40;;;;;;;-146.64;100.00;98410.41;5052066;28;20108;-75
2022/01/15 03:52:33;;;;;;;93.88;26.15;;;;;;;-146.64;100.00;98410.41;5065195;28;20519;-75
2022/01/15 03:54:59;;;;;;;83.50;24.77;;;;;;;-146.64;100.00;98410.41;5054509;28;20025;-74
2022/01/15 03:57:24;;;;;;;98.72;28.45;;;;;;;-146.64;100.00;98410.41;5051271;28;20167;-74
2022/01/15 03:59:49;;;;;;;109.50;25.40;;;;;;;-146.64;100.00;98676.28;5054739;28;20028;-74
2022/01/15 04:02:15;;;;;;;93.78;25.88;;;;;;;-146.64;100.00;98676.28;5052480;28;20037;-75
2022/01/15 04:04:40;;;;;;;90.43;26.77;;;;;;;-146.64;100.00;98942.19;5027568;28;20028;-75
2022/01/15 04:07:06;;;;;;;96.25;25.40;;;;;;;-146.64;100.00;98676.28;5054007;28;20432;-74
2022/01/15 04:09:31;;;;;;;91.30;26.67;;;;;;;-146.64;100.00;98676.28;5050042;28;20029;-74
2022/01/15 04:11:56;;;;;;;96.20;26.27;;;;;;;-146.64;100.00;98676.28;5055491;28;20048;-75
2022/01/15 04:14:21;;;;;;;83.82;25.55;;;;;;;-146.64;100.00;98676.28;5068802;28;20063;-74
2022/01/15 04:16:47;;;;;;;75.47;25.50;;;;;;;-146.64;100.00;98676.28;5051348;28;20032;-75
2022/01/15 04:19:12;;;;;;;79.78;23.77;;;;;;;-146.64;100.00;98676.28;5058608;28;20082;-75
2022/01/15 04:21:37;;;;;;;88.53;26.05;;;;;;;-146.64;100.00;98410.41;5071167;28;20169;-75
2022/01/15 04:24:03;;;;;;;124.80;25.25;;;;;;;-146.64;100.00;98144.53;5054878;28;20028;-76
2022/01/15 04:26:29;;;;;;;72.72;26.08;;;;;;;-146.64;100.00;98144.53;5054834;28;20024;-75
2022/01/15 04:29:01;;;;;;;141.80;27.25;;;;;;;-146.64;100.00;98144.53;5060894;28;20123;-74
2022/01/15 04:31:26;;;;;;;105.50;26.00;;;;;;;-146.64;100.00;98144.53;5070579;28;20035;-74
2022/01/15 04:33:52;;;;;;;91.22;24.80;;;;;;;-146.64;100.00;98410.41;5071497;28;20024;-74
2022/01/15 04:36:17;;;;;;;87.03;24.60;;;;;;;-146.64;100.00;98410.41;5070293;28;20058;-74
2022/01/15 04:38:43;;;;;;;104.22;25.73;;;;;;;-146.64;100.00;98410.41;5071867;28;20028;-75
2022/01/15 04:41:08;;;;;;;101.75;25.95;;;;;;;-146.64;100.00;97878.69;5072371;28;20036;-75
2022/01/15 04:43:34;;;;;;;72.47;24.77;;;;;;;-146.64;100.00;98144.53;5069597;28;20033;-75
2022/01/15 04:45:59;;;;;;;75.13;25.55;;;;;;;-146.64;100.00;97878.69;5070598;28;20460;-75
2022/01/15 04:48:24;;;;;;;75.95;24.10;;;;;;;-146.64;100.00;97878.69;5033134;28;20111;-75
2022/01/15 04:50:50;;;;;;;112.53;23.35;;;;;;;-146.64;100.00;97612.84;5034209;28;20036;-74
2022/01/15 04:53:16;;;;;;;114.70;25.13;;;;;;;-146.64;100.00;97612.84;5053872;28;20048;-74
2022/01/15 04:55:41;;;;;;;107.88;24.10;;;;;;;-146.64;100.00;97878.69;5058539;28;20135;-75
2022/01/15 04:58:07;;;;;;;106.20;24.83;;;;;;;-146.64;100.00;97878.69;5058189;28;20078;-74
2022/01/15 05:00:33;;;;;;;142.18;25.60;;;;;;;-146.64;100.00;98144.53;5061559;28;20468;-76
2022/01/15 05:02:58;;;;;;;115.68;27.30;;;;;;;-146.64;100.00;98410.41;5054644;28;20384;-74
2022/01/15 05:05:25;;;;;;;135.93;26.65;;;;;;;-146.64;100.00;98410.41;5052907;28;20529;-74
2022/01/15 05:07:52;;;;;;;108.75;26.05;;;;;;;-146.64;100.00;98410.41;5061121;28;20028;-74
2022/01/15 05:10:20;;;;;;;114.30;25.25;;;;;;;-146.64;100.00;98676.28;5075952;28;20055;-74
2022/01/15 05:12:47;;;;;;;79.78;24.50;;;;;;;-146.64;100.00;98410.41;5050827;28;20108;-75
2022/01/15 05:15:14;;;;;;;120.25;24.83;;;;;;;-146.64;100.00;98410.41;5032489;28;20035;-75
2022/01/15 05:17:40;;;;;;;;;;;;;;;-146.64;100.00;98410.41;5071308;28;20464;-74
2022/01/15 05:20:06;;;;;;;95.18;23.50;;;;;;;-146.64;100.00;98676.28;5047759;28;19958;-75
2022/01/15 05:22:33;;;;;;;95.07;26.35;;;;;;;-146.64;100.00;98676.28;5064005;28;20029;-74
2022/01/15 05:24:58;;;;;;;177.27;25.77;;;;;;;-146.64;100.00;98676.28;5070606;28;20105;-75
2022/01/15 05:27:24;;;;;;;103.50;25.35;;;;;;;-146.64;100.00;98676.28;5049244;28;20029;-75
2022/01/15 05:29:49;;;;;;;91.38;25.25;;;;;;;-146.64;100.00;98676.28;5038585;28;20029;-75
2022/01/15 05:32:14;;;;;;;107.07;25.75;;;;;;;-146.64;100.00;98676.28;5051496;28;20029;-74
2022/01/15 05:34:39;;;;;;;120.07;25.25;;;;;;;-146.64;100.00;98942.19;5053200;28;20514;-75
2022/01/15 05:37:05;;;;;;;101.00;26.83;;;;;;;-146.64;100.00;98942.19;5051800;28;20542;-75
2022/01/15 05:39:30;;;;;;;106.63;25.55;;;;;;;-146.64;100.00;98676.28;5071260;28;20016;-74
2022/01/15 05:41:56;;;;;;;146.27;27.23;;;;;;;-146.64;100.00;98676.28;5053574;28;20028;-75
2022/01/15 05:44:21;;;;;;;116.43;26.30;;;;;;;-146.64;100.00;98676.28;5070768;28;20012;-74
2022/01/15 05:46:48;;;;;;;101.50;25.38;;;;;;;-146.64;100.00;98942.19;5068404;28;20043;-74
2022/01/15 05:49:13;;;;;;;93.88;25.67;;;;;;;-146.64;100.00;98676.28;5067888;28;20035;-76
2022/01/15 05:51:39;;;;;;;140.98;25.88;;;;;;;-146.64;100.00;98942.19;5051888;28;20033;-74
2022/01/15 05:54:04;;;;;;;167.52;25.33;;;;;;;-146.64;100.00;98676.28;5065201;28;20104;-74
2022/01/15 05:56:30;;;;;;;102.03;23.90;;;;;;;-146.64;100.00;98676.28;5065545;28;20021;-75
2022/01/15 05:58:55;;;;;;;164.75;23.83;;;;;;;-146.64;100.00;98676.28;5047608;28;20415;-75
2022/01/15 06:01:21;;;;;;;127.60;22.67;;;;;;;-146.64;100.00;98676.28;5050405;28;20047;-75
2022/01/15 06:03:46;;;;;;;124.50;23.17;;;;;;;-146.64;100.00;98676.28;5049496;28;20190;-74
2022/01/15 06:06:13;;;;;;;178.85;24.35;;;;;;;-146.64;100.00;98942.19;5068124;28;20028;-75
2022/01/15 06:08:38;;;;;;;114.07;24.60;;;;;;;-146.64;100.00;98942.19;5050079;28;20096;-75
2022/01/15 06:11:04;;;;;;;115.47;23.23;;;;;;;-146.64;100.00;98942.19;5049264;28;20064;-75
2022/01/15 06:13:29;;;;;;;84.93;26.40;;;;;;;-146.64;100.00;98942.19;5067176;28;20071;-75
2022/01/15 06:15:54;;;;;;;114.30;26.08;;;;;;;-146.64;100.00;98942.19;5067315;28;20493;-75
2022/01/15 06:18:19;;;;;;;124.93;26.50;;;;;;;-146.64;100.00;98942.19;5054172;28;20032;-74
2022/01/15 06:20:45;;;;;;;114.68;27.85;;;;;;;-146.64;100.00;99208.09;5070829;28;20039;-75
2022/01/15 06:23:10;;;;;;;99.78;26.15;;;;;;;-146.64;100.00;98942.19;5054143;28;20063;-75
2022/01/15 06:25:35;;;;;;;90.65;26.73;;;;;;;-146.64;100.00;98676.28;5054114;28;20120;-75
2022/01/15 06:28:01;;;;;;;93.68;27.63;;;;;;;-146.64;100.00;98676.28;5072820;28;20025;-75
2022/01/15 06:30:26;;;;;;;124.28;28.48;;;;;;;-146.64;100.00;98410.41;5073641;28;20028;-74
2022/01/15 06:32:51;;;;;;;154.38;30.20;;;;;;;-146.64;100.00;98144.53;5072241;28;20039;-75
2022/01/15 06:35:17;;;;;;;144.35;30.45;;;;;;;-146.64;100.00;98144.53;5072769;28;20056;-75
2022/01/15 06:37:43;;;;;;;132.77;28.65;;;;;;;-146.64;100.00;98410.41;5041624;28;20108;-75
2022/01/15 06:40:11;;;;;;;131.13;28.83;;;;;;;-146.64;100.00;98144.53;5058561;28;20162;-75
2022/01/15 06:42:37;;;;;;;133.07;30.30;;;;;;;-146.64;100.00;98410.41;5052111;28;20041;-74
2022/01/15 06:45:03;;;;;;;154.18;31.63;;;;;;;-146.64;100.00;98410.41;5057935;28;20021;-75
2022/01/15 06:47:29;;;;;;;129.45;29.45;;;;;;;-146.64;100.00;98410.41;5040930;28;20024;-74
2022/01/15 06:49:54;;;;;;;118.05;28.33;;;;;;;-146.64;100.00;98144.53;5054441;28;20041;-75
2022/01/15 06:52:21;;;;;;;134.80;30.05;;;;;;;-146.64;100.00;98144.53;5040444;28;20434;-75
2022/01/15 06:54:46;;;;;;;162.90;31.02;;;;;;;-146.64;100.00;98410.41;5050439;28;20036;-75
2022/01/15 06:57:11;;;;;;;148.32;30.42;;;;;;;-146.64;100.00;98410.41;5053836;28;20041;-74
2022/01/15 06:59:37;;;;;;;141.45;29.52;;;;;;;-146.64;100.00;98410.41;5059533;28;20039;-74
2022/01/15 07:02:03;;;;;;;133.25;28.65;;;;;;;-146.64;100.00;98410.41;5053924;28;20033;-74
2022/01/15 07:04:28;;;;;;;120.07;31.85;;;;;;;-146.64;100.00;98676.28;5071882;28;20024;-74
2022/01/15 07:06:53;;;;;;;171.70;31.05;;;;;;;-146.64;100.00;98676.28;5054305;28;20033;-74
2022/01/15 07:09:18;;;;;;;118.78;29.15;;;;;;;-146.64;100.00;98676.28;5055389;28;20436;-74
2022/01/15 07:11:44;;;;;;;112.25;28.88;;;;;;;-146.64;100.00;98676.28;5055617;28;20029;-74
2022/01/15 07:14:09;;;;;;;102.50;30.25;;;;;;;-146.64;100.00;98942.19;5064832;28;20031;-74
2022/01/15 07:16:34;;;;;;;107.85;27.30;;;;;;;-146.64;100.00;98942.19;5053523;28;20032;-74
2022/01/15 07:19:01;;;;;;;177.00;28.70;;;;;;;-146.64;100.00;98410.41;5054207;28;20051;-74
2022/01/15 07:21:26;;;;;;;149.70;29.33;;;;;;;-146.64;100.00;98676.28;5038574;28;20158;-74
2022/01/15 07:23:51;;;;;;;167.23;29.58;;;;;;;-146.64;100.00;98676.28;5055426;28;20101;-75
2022/01/15 07:26:17;;;;;;;135.40;30.40;;;;;;;-146.64;100.00;98676.28;5034056;28;20480;-74
2022/01/15 07:28:42;;;;;;;128.50;29.90;;;;;;;-146.64;100.00;98676.28;5039220;28;20077;-74
2022/01/15 07:31:08;;;;;;;152.35;32.00;;;;;;;-146.64;100.00;98676.28;5065501;28;20459;-74
2022/01/15 07:33:33;;;;;;;152.03;30.70;;;;;;;-146.64;100.00;98942.19;5070656;28;20029;-74
2022/01/15 07:35:59;;;;;;;129.88;31.13;;;;;;;-146.64;100.00;98942.19;5070548;28;20630;-74
2022/01/15 07:38:24;;;;;;;147.30;29.48;;;;;;;-146.64;100.00;98942.19;5072514;28;20035;-74
2022/01/15 07:40:53;;;;;;;132.75;29.80;;;;;;;-146.64;100.00;98942.19;5056212;28;20025;-74
2022/01/15 07:43:19;;;;;;;189.45;29.23;;;;;;;-146.64;100.00;98942.19;5054221;28;20017;-74
2022/01/15 07:45:44;;;;;;;146.43;29.45;;;;;;;-146.64;100.00;98942.19;5044926;28;20039;-74
2022/01/15 07:48:09;;;;;;;139.88;29.38;;;;;;;-146.64;100.00;98942.19;5071541;28;20086;-74
2022/01/15 07:50:35;;;;;;;175.15;30.38;;;;;;;-146.64;100.00;98942.19;5070061;28;20024;-75
2022/01/15 07:53:00;;;;;;;121.43;30.73;;;;;;;-146.64;100.00;98942.19;5054033;28;20453;-74
2022/01/15 07:55:26;;;;;;;123.03;28.33;;;;;;;-146.64;100.00;98942.19;5075761;28;20039;-74
2022/01/15 07:57:51;;;;;;;104.97;28.13;;;;;;;-146.64;100.00;99208.09;5054864;28;20198;-74
2022/01/15 08:00:18;;;;;;;129.27;28.38;;;;;;;-146.64;100.00;98942.19;5045013;28;20109;-74
2022/01/15 08:02:43;;;;;;;164.50;28.60;;;;;;;-146.64;100.00;98942.19;5051463;28;20025;-74
2022/01/15 08:05:10;;;;;;;119.72;28.08;;;;;;;-146.64;100.00;99208.09;5054968;28;20040;-74
2022/01/15 08:07:36;;;;;;;107.85;29.42;;;;;;;-146.64;100.00;98942.19;5055422;28;20511;-74
2022/01/15 08:10:04;;;;;;;163.55;30.95;;;;;;;-146.64;100.00;98942.19;5070915;28;20032;-74
2022/01/15 08:12:29;;;;;;;118.63;30.58;;;;;;;-146.64;100.00;98942.19;5063763;28;20112;-75
2022/01/15 08:14:55;;;;;;;156.05;30.38;;;;;;;-146.64;100.00;98942.19;5053503;28;20091;-74
2022/01/15 08:17:20;;;;;;;219.35;30.15;;;;;;;-146.64;100.00;98676.28;5060157;28;20373;-74
2022/01/15 08:19:46;;;;;;;198.68;30.23;;;;;;;-146.64;100.00;98676.28;5049251;28;20073;-74
2022/01/15 08:22:11;;;;;;;159.38;29.77;;;;;;;-146.64;100.00;98676.28;5036911;28;20024;-75
2022/01/15 08:24:36;;;;;;;180.63;30.83;;;;;;;-146.64;100.00;98942.19;5049956;28;20029;-75
2022/01/15 08:27:02;;;;;;;186.93;29.98;;;;;;;-146.64;100.00;98676.28;5063696;28;20028;-74
2022/01/15 08:29:27;;;;;;;151.18;29.77;;;;;;;-146.64;100.00;98676.28;5064723;28;20028;-74
2022/01/15 08:31:52;;;;;;;150.30;29.88;;;;;;;-146.64;100.00;98676.28;5051308;28;20016;-74
2022/01/15 08:34:18;;;;;;;107.70;29.85;;;;;;;-146.64;100.00;98410.41;5047757;28;20025;-74
2022/01/15 08:36:43;;;;;;;112.20;28.83;;;;;;;-146.64;100.00;98410.41;5052162;28;20809;-74
2022/01/15 08:39:09;;;;;;;162.77;28.92;;;;;;;-146.64;100.00;98144.53;5072139;28;20029;-74
2022/01/15 08:41:35;;;;;;;143.90;28.55;;;;;;;-146.64;100.00;98144.53;5050148;28;20021;-74
2022/01/15 08:44:01;;;;;;;133.98;31.17;;;;;;;-146.64;100.00;97878.69;5049939;28;20025;-74
2022/01/15 08:46:26;;;;;;;184.05;31.80;;;;;;;-146.64;100.00;98144.53;5065896;28;20123;-74
2022/01/15 08:48:52;;;;;;;123.55;29.77;;;;;;;-146.64;100.00;98144.53;5051745;28;20121;-75
2022/01/15 08:51:17;;;;;;;134.07;29.48;;;;;;;-146.64;100.00;98144.53;5045456;28;20067;-74
2022/01/15 08:53:42;;;;;;;137.75;31.13;;;;;;;-146.64;100.00;98144.53;5050532;28;20481;-74
2022/01/15 08:56:08;;;;;;;177.95;31.08;;;;;;;-146.64;100.00;98144.53;5037186;28;20502;-74
2022/01/15 08:58:34;;;;;;;114.57;31.95;;;;;;;-146.64;100.00;97878.69;5066677;28;20411;-74
2022/01/15 09:00:59;;;;;;;106.65;27.73;;;;;;;-146.64;100.00;97878.69;5038117;28;20411;-74
2022/01/15 09:03:25;;;;;;;111.47;28.17;;;;;;;-146.64;100.00;97878.69;5062305;28;20032;-74
2022/01/15 09:05:51;;;;;;;115.82;30.05;;;;;;;-146.64;100.00;97878.69;5034616;28;20033;-75
2022/01/15 09:08:18;;;;;;;117.05;29.33;;;;;;;-146.64;100.00;97878.69;5056244;28;20032;-76
2022/01/15 09:10:44;;;;;;;98.07;29.88;;;;;;;-146.64;100.00;97878.69;5043607;28;20028;-74
2022/01/15 09:13:09;;;;;;;161.38;34.47;;;;;;;-146.64;100.00;98144.53;5042466;28;20035;-74
2022/01/15 09:15:35;;;;;;;192.40;31.88;;;;;;;-146.64;100.00;97878.69;5073879;28;20020;-75
2022/01/15 09:18:00;;;;;;;161.15;31.70;;;;;;;-146.64;100.00;97878.69;5056638;28;20024;-74
2022/01/15 09:20:26;;;;;;;168.15;32.22;;;;;;;-146.64;100.00;97878.69;5039211;28;20110;-74
2022/01/15 09:22:51;;;;;;;109.93;30.17;;;;;;;-146.64;100.00;97878.69;5039455;28;20119;-74
2022/01/15 09:25:17;;;;;;;135.88;30.08;;;;;;;-146.64;100.00;97878.69;5044344;28;20024;-74
2022/01/15 09:30:26;;;;;;;133.07;31.75;;;;;;;-146.64;100.00;97878.69;5069628;28;20055;-74
2022/01/15 09:32:53;;;;;;;120.20;31.38;;;;;;;-146.64;100.00;97878.69;5066750;28;20024;-74
2022/01/15 09:35:20;;;;;;;;;;;;;;;-146.64;100.00;97878.69;5044407;28;20020;-75
2022/01/15 09:37:47;;;;;;;114.35;30.25;;;;;;;-146.64;100.00;97612.84;5068441;28;19912;-74
2022/01/15 09:40:12;;;;;;;;;;;;;;;-146.64;100.00;97612.84;5058483;28;20032;-75
2022/01/15 09:42:39;;;;;;;140.23;27.27;;;;;;;-146.64;100.00;97081.25;5041627;28;20992;-74
2022/01/15 09:45:06;;;;;;;109.38;29.90;;;;;;;-146.64;100.00;96815.47;5065707;28;20028;-74
2022/01/15 09:47:32;;;;;;;;;;;;;;;-146.64;100.00;96815.47;5054124;28;20048;-74
2022/01/15 09:49:58;;;;;;;117.95;26.73;;;;;;;-146.64;100.00;96018.25;5029241;28;19978;-75
2022/01/15 09:52:23;;;;;;;123.72;28.35;;;;;;;-146.64;100.00;95752.53;5029587;28;20509;-75
2022/01/15 09:54:50;;;;;;;101.55;28.00;;;;;;;-146.64;100.00;95752.53;5052252;28;20507;-76
2022/01/15 09:57:16;;;;;;;113.38;27.85;;;;;;;-146.64;100.00;95752.53;5052036;28;20441;-74
2022/01/15 09:59:41;;;;;;;123.40;28.15;;;;;;;-146.64;100.00;95221.19;5054081;28;20093;-75
2022/01/15 10:02:06;;;;;;;79.82;24.55;;;;;;;-146.64;100.00;95221.19;5035993;28;20443;-75
2022/01/15 10:04:32;;;;;;;102.50;25.35;;;;;;;-146.64;100.00;94424.25;5064663;28;20072;-74
2022/01/15 10:07:12;;;;;;;102.28;25.17;;;;;;;-146.64;100.00;93893.06;5033209;28;20103;-75
2022/01/15 10:09:38;;;;;;;85.40;24.15;;;;;;;-146.64;100.00;93627.50;5027710;28;20043;-75
2022/01/15 10:12:04;;;;;;;67.28;22.67;;;;;;;-146.64;100.00;93627.50;5040067;28;20392;-74
2022/01/15 10:14:31;;;;;;;67.45;22.88;;;;;;;-146.64;100.00;92830.91;5046693;28;20392;-75
2022/01/15 10:16:57;;;;;;;;;;;;;;;-146.64;100.00;92565.41;5028186;28;20031;-75
2022/01/15 10:19:28;;;;;;;64.57;21.65;;;;;;;-146.64;100.00;93096.44;5031562;28;20003;-76
2022/01/15 10:22:16;;;;;;;65.72;23.38;;;;;;;-146.64;100.00;92830.91;5038218;28;20454;-75
2022/01/15 10:24:50;;;;;;;77.20;23.17;;;;;;;-146.64;100.00;92299.94;5067768;28;20074;-75
2022/01/15 10:27:36;;;;;;;71.43;25.90;;;;;;;-146.64;100.00;92299.94;5066911;28;20036;-74
2022/01/15 10:30:08;;;;;;;68.93;23.50;;;;;;;-146.64;100.00;90707.41;5052421;28;20025;-75
2022/01/15 10:32:35;;;;;;;54.58;22.35;;;;;;;-146.64;100.00;90442.06;5065944;28;20408;-74
2022/01/15 10:35:12;;;;;;;54.15;21.92;;;;;;;-146.64;100.00;89380.81;5069515;28;20032;-75
2022/01/15 10:38:12;;;;;;;42.80;20.35;;;;;;;-146.64;100.00;87524.28;5068204;28;20029;-75
2022/01/15 10:40:42;;;;;;;56.78;20.92;;;;;;;-146.64;100.00;86463.78;5023910;28;20036;-75
2022/01/15 10:43:10;;;;;;;43.00;21.08;;;;;;;-146.64;100.00;86198.72;5049866;28;20052;-75
2022/01/15 10:45:47;;;;;;;49.08;20.70;;;;;;;-146.64;100.00;85668.59;5066317;28;20052;-74
2022/01/15 10:48:20;;;;;;;59.20;20.15;;;;;;;-146.64;100.00;85933.66;5069561;28;20036;-74
2022/01/15 10:50:55;;;;;;;50.78;18.63;;;;;;;-146.64;100.00;86728.88;5055700;28;20524;-75
2022/01/15 10:53:35;;;;;;;47.75;20.58;;;;;;;-146.64;100.00;87259.13;5046353;28;20404;-74
2022/01/15 10:56:01;;;;;;;61.38;21.15;;;;;;;-146.64;100.00;87259.13;5046559;28;20036;-74
2022/01/15 10:58:26;;;;;;;53.35;20.92;;;;;;;-146.64;100.00;87259.13;5048452;28;20025;-74
2022/01/15 11:00:53;;;;;;;50.28;20.13;;;;;;;-146.64;100.00;86463.78;5050050;28;20035;-75
2022/01/15 11:03:19;;;;;;;41.50;19.25;;;;;;;-146.64;100.00;85668.59;5042185;28;20466;-74
2022/01/15 11:05:49;;;;;;;45.40;19.52;;;;;;;-146.64;100.00;84608.59;5041734;28;20040;-75
2022/01/15 11:08:21;;;;;;;42.17;19.25;;;;;;;-146.64;100.00;84873.56;5047038;28;20119;-75
2022/01/15 11:10:53;;;;;;;42.40;20.00;;;;;;;-146.64;100.00;85403.56;5045264;28;20090;-74
2022/01/15 11:13:27;;;;;;;47.88;20.98;;;;;;;-146.64;100.00;84873.56;5043372;28;20037;-74